sensor_id;sensor_type;location;lat;lon;timestamp;pressure;altitude;pressure_sealevel;temperature;humidity
22025;BME280;11176;51.448;6.650;2023-02-28T00:00:38;45775.94;;;-141.29;86.83
22025;BME280;11176;51.448;6.650;2023-02-28T00:03:05;45765.97;;;-141.29;86.57
22025;BME280;11176;51.448;6.650;2023-02-28T00:05:32;45747.97;;;-141.29;86.68
22025;BME280;11176;51.448;6.650;2023-02-28T00:07:58;45773.94;;;-141.29;86.77
22025;BME280;11176;51.448;6.650;2023-02-28T00:10:28;45755.97;;;-141.29;86.73
22025;BME280;11176;51.448;6.650;2023-02-28T00:12:59;45793.94;;;-141.29;86.10
22025;BME280;11176;51.448;6.650;2023-02-28T00:15:26;45777.94;;;-141.29;85.73
22025;BME280;11176;51.448;6.650;2023-02-28T00:17:52;45769.97;;;-141.29;85.71
22025;BME280;11176;51.448;6.650;2023-02-28T00:20:19;45797.94;;;-141.29;85.91
22025;BME280;11176;51.448;6.650;2023-02-28T00:22:49;45765.97;;;-141.29;86.17
22025;BME280;11176;51.448;6.650;2023-02-28T00:25:22;45773.94;;;-141.29;85.95
22025;BME280;11176;51.448;6.650;2023-02-28T00:27:49;45753.97;;;-141.29;86.37
22025;BME280;11176;51.448;6.650;2023-02-28T00:30:21;45789.94;;;-141.29;86.46
22025;BME280;11176;51.448;6.650;2023-02-28T00:32:49;45773.94;;;-141.29;86.10
22025;BME280;11176;51.448;6.650;2023-02-28T00:35:16;45781.94;;;-141.29;86.29
22025;BME280;11176;51.448;6.650;2023-02-28T00:37:43;45777.94;;;-141.29;86.19
22025;BME280;11176;51.448;6.650;2023-02-28T00:40:10;45773.94;;;-141.29;86.62
22025;BME280;11176;51.448;6.650;2023-02-28T00:42:38;45777.94;;;-141.29;87.12
22025;BME280;11176;51.448;6.650;2023-02-28T00:45:07;45773.94;;;-141.29;87.29
22025;BME280;11176;51.448;6.650;2023-02-28T00:47:37;45789.94;;;-141.29;87.07
22025;BME280;11176;51.448;6.650;2023-02-28T00:50:04;45743.97;;;-141.29;87.11
22025;BME280;11176;51.448;6.650;2023-02-28T00:52:30;45769.97;;;-141.29;87.33
22025;BME280;11176;51.448;6.650;2023-02-28T00:54:57;45777.94;;;-141.29;86.54
22025;BME280;11176;51.448;6.650;2023-02-28T00:57:23;45783.94;;;-141.29;86.62
22025;BME280;11176;51.448;6.650;2023-02-28T00:59:50;45769.97;;;-141.29;86.30
22025;BME280;11176;51.448;6.650;2023-02-28T01:02:16;45773.94;;;-141.29;85.51
22025;BME280;11176;51.448;6.650;2023-02-28T01:04:44;45781.94;;;-141.29;84.82
22025;BME280;11176;51.448;6.650;2023-02-28T01:07:11;45757.97;;;-141.29;84.49
22025;BME280;11176;51.448;6.650;2023-02-28T01:09:38;45769.97;;;-141.29;84.58
22025;BME280;11176;51.448;6.650;2023-02-28T01:12:06;45765.97;;;-141.29;83.58
22025;BME280;11176;51.448;6.650;2023-02-28T01:14:33;45767.97;;;-141.29;82.97
22025;BME280;11176;51.448;6.650;2023-02-28T01:17:00;45765.97;;;-141.29;83.49
22025;BME280;11176;51.448;6.650;2023-02-28T01:19:27;45791.94;;;-141.29;83.01
22025;BME280;11176;51.448;6.650;2023-02-28T01:21:53;45769.97;;;-141.29;83.21
22025;BME280;11176;51.448;6.650;2023-02-28T01:24:20;45757.97;;;-141.29;82.71
22025;BME280;11176;51.448;6.650;2023-02-28T01:26:47;45781.94;;;-141.29;82.19
22025;BME280;11176;51.448;6.650;2023-02-28T01:29:14;45773.94;;;-141.29;82.12
22025;BME280;11176;51.448;6.650;2023-02-28T01:31:41;45761.97;;;-141.29;81.71
22025;BME280;11176;51.448;6.650;2023-02-28T01:34:07;45781.94;;;-141.29;81.52
22025;BME280;11176;51.448;6.650;2023-02-28T01:36:34;45785.94;;;-141.29;81.73
22025;BME280;11176;51.448;6.650;2023-02-28T01:39:00;45797.94;;;-141.29;81.83
22025;BME280;11176;51.448;6.650;2023-02-28T01:41:29;45773.94;;;-141.29;82.55
22025;BME280;11176;51.448;6.650;2023-02-28T01:44:06;45769.97;;;-141.29;82.43
22025;BME280;11176;51.448;6.650;2023-02-28T01:46:35;45799.94;;;-141.29;83.16
22025;BME280;11176;51.448;6.650;2023-02-28T01:49:09;45771.94;;;-141.29;82.99
22025;BME280;11176;51.448;6.650;2023-02-28T01:51:46;45781.94;;;-141.29;82.39
22025;BME280;11176;51.448;6.650;2023-02-28T01:54:26;45773.94;;;-141.29;83.20
22025;BME280;11176;51.448;6.650;2023-02-28T01:56:56;45781.94;;;-141.29;83.44
22025;BME280;11176;51.448;6.650;2023-02-28T01:59:30;45809.94;;;-141.29;83.52
22025;BME280;11176;51.448;6.650;2023-02-28T02:01:59;45781.94;;;-141.29;83.51
22025;BME280;11176;51.448;6.650;2023-02-28T02:04:39;45777.94;;;-141.29;83.87
22025;BME280;11176;51.448;6.650;2023-02-28T02:07:08;45807.94;;;-141.29;83.93
22025;BME280;11176;51.448;6.650;2023-02-28T02:09:35;45789.94;;;-141.29;84.13
22025;BME280;11176;51.448;6.650;2023-02-28T02:12:12;45797.94;;;-141.29;84.59
22025;BME280;11176;51.448;6.650;2023-02-28T02:15:01;45785.94;;;-141.29;84.08
22025;BME280;11176;51.448;6.650;2023-02-28T02:17:32;45783.94;;;-141.29;84.40
22025;BME280;11176;51.448;6.650;2023-02-28T02:22:58;45789.94;;;-141.29;84.82
22025;BME280;11176;51.448;6.650;2023-02-28T02:25:53;45801.94;;;-141.29;85.52
22025;BME280;11176;51.448;6.650;2023-02-28T02:28:56;45805.94;;;-141.29;85.67
22025;BME280;11176;51.448;6.650;2023-02-28T02:39:58;45797.94;;;-141.29;87.45
22025;BME280;11176;51.448;6.650;2023-02-28T02:42:52;45797.94;;;-141.29;88.45
22025;BME280;11176;51.448;6.650;2023-02-28T02:45:37;45815.94;;;-141.29;88.16
22025;BME280;11176;51.448;6.650;2023-02-28T02:48:08;45819.91;;;-141.29;88.62
22025;BME280;11176;51.448;6.650;2023-02-28T02:50:43;45799.94;;;-141.29;88.81
22025;BME280;11176;51.448;6.650;2023-02-28T02:53:13;45821.91;;;-141.29;89.40
22025;BME280;11176;51.448;6.650;2023-02-28T02:55:43;45791.94;;;-141.29;89.27
22025;BME280;11176;51.448;6.650;2023-02-28T02:58:14;45803.94;;;-141.29;89.30
22025;BME280;11176;51.448;6.650;2023-02-28T03:00:47;45821.91;;;-141.29;89.36
22025;BME280;11176;51.448;6.650;2023-02-28T03:03:18;45813.94;;;-141.29;89.81
22025;BME280;11176;51.448;6.650;2023-02-28T03:05:48;45791.94;;;-141.29;90.17
22025;BME280;11176;51.448;6.650;2023-02-28T03:08:15;45805.94;;;-141.29;90.00
22025;BME280;11176;51.448;6.650;2023-02-28T03:10:45;45803.94;;;-141.29;90.29
22025;BME280;11176;51.448;6.650;2023-02-28T03:13:43;45801.94;;;-141.29;90.52
22025;BME280;11176;51.448;6.650;2023-02-28T03:21:56;45803.94;;;-141.29;91.31
22025;BME280;11176;51.448;6.650;2023-02-28T03:24:42;45835.91;;;-141.29;91.62
22025;BME280;11176;51.448;6.650;2023-02-28T03:27:20;45817.91;;;-141.29;90.82
22025;BME280;11176;51.448;6.650;2023-02-28T03:29:55;45817.91;;;-141.29;91.00
22025;BME280;11176;51.448;6.650;2023-02-28T03:32:25;45829.91;;;-141.29;91.39
22025;BME280;11176;51.448;6.650;2023-02-28T03:35:02;45827.91;;;-141.29;91.85
22025;BME280;11176;51.448;6.650;2023-02-28T03:37:33;45821.91;;;-141.29;92.03
22025;BME280;11176;51.448;6.650;2023-02-28T03:40:12;45827.91;;;-141.29;91.96
22025;BME280;11176;51.448;6.650;2023-02-28T03:42:43;45823.91;;;-141.29;91.82
22025;BME280;11176;51.448;6.650;2023-02-28T03:45:16;45809.94;;;-141.29;91.72
22025;BME280;11176;51.448;6.650;2023-02-28T03:50:35;45843.91;;;-141.29;91.65
22025;BME280;11176;51.448;6.650;2023-02-28T03:55:37;45805.94;;;-141.29;92.02
22025;BME280;11176;51.448;6.650;2023-02-28T04:00:45;45831.91;;;-141.29;92.68
22025;BME280;11176;51.448;6.650;2023-02-28T04:03:13;45841.91;;;-141.29;93.12
22025;BME280;11176;51.448;6.650;2023-02-28T04:05:53;45829.91;;;-141.29;92.85
22025;BME280;11176;51.448;6.650;2023-02-28T04:08:21;45801.94;;;-141.29;92.50
22025;BME280;11176;51.448;6.650;2023-02-28T04:10:56;45817.91;;;-141.29;92.71
22025;BME280;11176;51.448;6.650;2023-02-28T04:13:24;45849.91;;;-141.29;93.12
22025;BME280;11176;51.448;6.650;2023-02-28T04:15:50;45805.94;;;-141.29;92.91
22025;BME280;11176;51.448;6.650;2023-02-28T04:18:17;45845.91;;;-141.29;93.30
22025;BME280;11176;51.448;6.650;2023-02-28T04:20:43;45835.91;;;-141.29;92.98
22025;BME280;11176;51.448;6.650;2023-02-28T04:23:10;45821.91;;;-141.29;92.69
22025;BME280;11176;51.448;6.650;2023-02-28T04:25:36;45827.91;;;-141.29;91.32
22025;BME280;11176;51.448;6.650;2023-02-28T04:28:03;45839.91;;;-141.29;90.58
22025;BME280;11176;51.448;6.650;2023-02-28T04:30:29;45825.91;;;-141.29;90.35
22025;BME280;11176;51.448;6.650;2023-02-28T04:32:59;45811.94;;;-141.29;89.96
22025;BME280;11176;51.448;6.650;2023-02-28T04:35:26;45821.91;;;-141.29;89.56
22025;BME280;11176;51.448;6.650;2023-02-28T04:37:52;45821.91;;;-141.29;88.56
22025;BME280;11176;51.448;6.650;2023-02-28T04:40:18;45821.91;;;-141.29;88.49
22025;BME280;11176;51.448;6.650;2023-02-28T04:42:45;45817.91;;;-141.29;88.30
22025;BME280;11176;51.448;6.650;2023-02-28T04:45:11;45837.91;;;-141.29;88.42
22025;BME280;11176;51.448;6.650;2023-02-28T04:47:38;45831.91;;;-141.29;88.38
22025;BME280;11176;51.448;6.650;2023-02-28T04:50:04;45829.91;;;-141.29;87.80
22025;BME280;11176;51.448;6.650;2023-02-28T04:52:31;45829.91;;;-141.29;87.11
22025;BME280;11176;51.448;6.650;2023-02-28T04:54:58;45817.91;;;-141.29;87.51
22025;BME280;11176;51.448;6.650;2023-02-28T04:57:24;45821.91;;;-141.29;85.81
22025;BME280;11176;51.448;6.650;2023-02-28T04:59:51;45821.91;;;-141.29;85.54
22025;BME280;11176;51.448;6.650;2023-02-28T05:02:17;45837.91;;;-141.29;85.02
22025;BME280;11176;51.448;6.650;2023-02-28T05:04:43;45827.91;;;-141.29;85.06
22025;BME280;11176;51.448;6.650;2023-02-28T05:07:10;45831.91;;;-141.29;84.61
22025;BME280;11176;51.448;6.650;2023-02-28T05:09:37;45825.91;;;-141.29;84.66
22025;BME280;11176;51.448;6.650;2023-02-28T05:12:03;45825.91;;;-141.29;84.92
22025;BME280;11176;51.448;6.650;2023-02-28T05:14:29;45819.91;;;-141.29;84.75
22025;BME280;11176;51.448;6.650;2023-02-28T05:16:56;45825.91;;;-141.29;84.44
22025;BME280;11176;51.448;6.650;2023-02-28T05:19:22;45817.91;;;-141.29;84.40
22025;BME280;11176;51.448;6.650;2023-02-28T05:21:52;45813.94;;;-141.29;84.00
22025;BME280;11176;51.448;6.650;2023-02-28T05:24:19;45817.91;;;-141.29;83.55
22025;BME280;11176;51.448;6.650;2023-02-28T05:26:50;45825.91;;;-141.29;83.21
22025;BME280;11176;51.448;6.650;2023-02-28T05:29:17;45825.91;;;-141.29;83.18
22025;BME280;11176;51.448;6.650;2023-02-28T05:31:44;45825.91;;;-141.29;83.27
22025;BME280;11176;51.448;6.650;2023-02-28T05:34:11;45827.91;;;-141.29;83.66
22025;BME280;11176;51.448;6.650;2023-02-28T05:36:39;45793.94;;;-141.29;82.93
22025;BME280;11176;51.448;6.650;2023-02-28T05:39:06;45821.91;;;-141.29;82.65
22025;BME280;11176;51.448;6.650;2023-02-28T05:41:33;45825.91;;;-141.29;82.16
22025;BME280;11176;51.448;6.650;2023-02-28T05:44:00;45833.91;;;-141.29;82.61
22025;BME280;11176;51.448;6.650;2023-02-28T05:46:26;45821.91;;;-141.29;82.59
22025;BME280;11176;51.448;6.650;2023-02-28T05:48:53;45829.91;;;-141.29;82.71
22025;BME280;11176;51.448;6.650;2023-02-28T05:51:20;45827.91;;;-141.29;83.40
22025;BME280;11176;51.448;6.650;2023-02-28T05:53:46;45841.91;;;-141.29;83.62
22025;BME280;11176;51.448;6.650;2023-02-28T05:56:14;45843.91;;;-141.29;83.71
22025;BME280;11176;51.448;6.650;2023-02-28T05:58:41;45841.91;;;-141.29;83.00
22025;BME280;11176;51.448;6.650;2023-02-28T06:01:36;45847.91;;;-141.29;83.54
22025;BME280;11176;51.448;6.650;2023-02-28T06:04:05;45825.91;;;-141.29;83.33
22025;BME280;11176;51.448;6.650;2023-02-28T06:06:32;45843.91;;;-141.29;83.14
22025;BME280;11176;51.448;6.650;2023-02-28T06:09:04;45817.91;;;-141.29;83.31
22025;BME280;11176;51.448;6.650;2023-02-28T06:11:30;45841.91;;;-141.29;83.74
22025;BME280;11176;51.448;6.650;2023-02-28T06:13:58;45829.91;;;-141.29;83.50
22025;BME280;11176;51.448;6.650;2023-02-28T06:16:27;45825.91;;;-141.29;83.20
22025;BME280;11176;51.448;6.650;2023-02-28T06:18:54;45827.91;;;-141.29;83.38
22025;BME280;11176;51.448;6.650;2023-02-28T06:21:24;45821.91;;;-141.29;83.01
22025;BME280;11176;51.448;6.650;2023-02-28T06:23:50;45821.91;;;-141.29;82.66
22025;BME280;11176;51.448;6.650;2023-02-28T06:26:17;45845.91;;;-141.29;82.28
22025;BME280;11176;51.448;6.650;2023-02-28T06:28:43;45833.91;;;-141.29;82.21
22025;BME280;11176;51.448;6.650;2023-02-28T06:31:11;45817.91;;;-141.29;81.91
22025;BME280;11176;51.448;6.650;2023-02-28T06:33:39;45861.91;;;-141.29;82.46
22025;BME280;11176;51.448;6.650;2023-02-28T06:36:06;45819.91;;;-141.29;81.99
22025;BME280;11176;51.448;6.650;2023-02-28T06:38:33;45815.94;;;-141.29;81.91
22025;BME280;11176;51.448;6.650;2023-02-28T06:41:00;45835.91;;;-141.29;81.54
22025;BME280;11176;51.448;6.650;2023-02-28T06:43:30;45829.91;;;-141.29;82.16
22025;BME280;11176;51.448;6.650;2023-02-28T06:45:58;45837.91;;;-141.29;82.32
22025;BME280;11176;51.448;6.650;2023-02-28T06:48:26;45837.91;;;-141.29;82.61
22025;BME280;11176;51.448;6.650;2023-02-28T06:51:00;45813.94;;;-141.29;82.77
22025;BME280;11176;51.448;6.650;2023-02-28T06:53:27;45841.91;;;-141.29;82.63
22025;BME280;11176;51.448;6.650;2023-02-28T06:55:54;45833.91;;;-141.29;82.56
22025;BME280;11176;51.448;6.650;2023-02-28T06:58:20;45855.91;;;-141.29;82.41
22025;BME280;11176;51.448;6.650;2023-02-28T07:00:51;45827.91;;;-141.29;82.36
22025;BME280;11176;51.448;6.650;2023-02-28T07:03:18;45839.91;;;-141.29;82.83
22025;BME280;11176;51.448;6.650;2023-02-28T07:05:44;45831.91;;;-141.29;82.32
22025;BME280;11176;51.448;6.650;2023-02-28T07:08:11;45829.91;;;-141.29;82.36
22025;BME280;11176;51.448;6.650;2023-02-28T07:10:38;45833.91;;;-141.29;82.03
22025;BME280;11176;51.448;6.650;2023-02-28T07:13:05;45811.94;;;-141.29;82.39
22025;BME280;11176;51.448;6.650;2023-02-28T07:15:31;45829.91;;;-141.29;82.07
22025;BME280;11176;51.448;6.650;2023-02-28T07:17:58;45845.91;;;-141.29;81.97
22025;BME280;11176;51.448;6.650;2023-02-28T07:20:24;45833.91;;;-141.29;81.91
22025;BME280;11176;51.448;6.650;2023-02-28T07:22:51;45809.94;;;-141.29;82.59
22025;BME280;11176;51.448;6.650;2023-02-28T07:25:23;45837.91;;;-141.29;82.05
22025;BME280;11176;51.448;6.650;2023-02-28T07:27:50;45833.91;;;-141.29;81.75
22025;BME280;11176;51.448;6.650;2023-02-28T07:30:17;45829.91;;;-141.29;81.84
22025;BME280;11176;51.448;6.650;2023-02-28T07:32:43;45829.91;;;-141.29;82.06
22025;BME280;11176;51.448;6.650;2023-02-28T07:35:10;45809.94;;;-141.29;81.46
22025;BME280;11176;51.448;6.650;2023-02-28T07:37:37;45813.94;;;-141.29;80.47
22025;BME280;11176;51.448;6.650;2023-02-28T07:40:05;45813.94;;;-141.29;79.60
22025;BME280;11176;51.448;6.650;2023-02-28T07:42:35;45813.94;;;-141.29;79.51
22025;BME280;11176;51.448;6.650;2023-02-28T07:45:04;45781.94;;;-141.29;79.50
22025;BME280;11176;51.448;6.650;2023-02-28T07:47:31;45839.91;;;-141.29;78.81
22025;BME280;11176;51.448;6.650;2023-02-28T07:49:58;45825.91;;;-141.29;78.48
22025;BME280;11176;51.448;6.650;2023-02-28T07:52:24;45777.94;;;-141.29;78.23
22025;BME280;11176;51.448;6.650;2023-02-28T07:54:51;45801.94;;;-141.29;77.79
22025;BME280;11176;51.448;6.650;2023-02-28T07:57:18;45817.91;;;-141.29;78.23
22025;BME280;11176;51.448;6.650;2023-02-28T07:59:44;45817.91;;;-141.29;78.12
22025;BME280;11176;51.448;6.650;2023-02-28T08:02:13;45793.94;;;-141.29;78.06
22025;BME280;11176;51.448;6.650;2023-02-28T08:04:40;45797.94;;;-141.29;77.87
22025;BME280;11176;51.448;6.650;2023-02-28T08:07:07;45803.94;;;-141.29;77.73
22025;BME280;11176;51.448;6.650;2023-02-28T08:09:34;45817.91;;;-141.29;77.99
22025;BME280;11176;51.448;6.650;2023-02-28T08:12:00;45777.94;;;-141.29;77.90
22025;BME280;11176;51.448;6.650;2023-02-28T08:14:27;45805.94;;;-141.29;76.74
22025;BME280;11176;51.448;6.650;2023-02-28T08:16:53;45807.94;;;-141.29;77.43
22025;BME280;11176;51.448;6.650;2023-02-28T08:19:20;45817.91;;;-141.29;76.35
22025;BME280;11176;51.448;6.650;2023-02-28T08:21:46;45793.94;;;-141.29;74.86
22025;BME280;11176;51.448;6.650;2023-02-28T08:24:13;45775.94;;;-141.29;73.56
22025;BME280;11176;51.448;6.650;2023-02-28T08:26:39;45785.94;;;-141.29;74.44
22025;BME280;11176;51.448;6.650;2023-02-28T08:29:06;45789.94;;;-141.29;74.34
22025;BME280;11176;51.448;6.650;2023-02-28T08:31:32;45781.94;;;-141.29;72.48
22025;BME280;11176;51.448;6.650;2023-02-28T08:33:59;45793.94;;;-141.29;72.07
22025;BME280;11176;51.448;6.650;2023-02-28T08:36:25;45781.94;;;-141.29;70.68
22025;BME280;11176;51.448;6.650;2023-02-28T08:38:55;45793.94;;;-141.29;69.99
22025;BME280;11176;51.448;6.650;2023-02-28T08:41:23;45791.94;;;-141.29;69.21
22025;BME280;11176;51.448;6.650;2023-02-28T08:43:49;45791.94;;;-141.29;70.14
22025;BME280;11176;51.448;6.650;2023-02-28T08:46:16;45773.94;;;-141.29;68.19
22025;BME280;11176;51.448;6.650;2023-02-28T08:48:43;45769.97;;;-141.29;67.26
22025;BME280;11176;51.448;6.650;2023-02-28T08:51:12;45761.97;;;-141.29;66.60
22025;BME280;11176;51.448;6.650;2023-02-28T08:53:40;45773.94;;;-141.29;67.14
22025;BME280;11176;51.448;6.650;2023-02-28T08:56:10;45789.94;;;-141.29;65.35
22025;BME280;11176;51.448;6.650;2023-02-28T08:58:37;45779.94;;;-141.29;64.67
22025;BME280;11176;51.448;6.650;2023-02-28T09:01:12;45749.97;;;-141.29;64.16
22025;BME280;11176;51.448;6.650;2023-02-28T09:03:39;45769.97;;;-141.29;63.77
22025;BME280;11176;51.448;6.650;2023-02-28T09:06:07;45781.94;;;-141.29;62.64
22025;BME280;11176;51.448;6.650;2023-02-28T09:08:34;45781.94;;;-141.29;61.95
22025;BME280;11176;51.448;6.650;2023-02-28T09:11:01;45747.97;;;-141.29;58.93
22025;BME280;11176;51.448;6.650;2023-02-28T09:13:29;45753.97;;;-141.29;56.99
22025;BME280;11176;51.448;6.650;2023-02-28T09:16:00;45739.97;;;-141.29;56.39
22025;BME280;11176;51.448;6.650;2023-02-28T09:18:27;45757.97;;;-141.29;54.10
22025;BME280;11176;51.448;6.650;2023-02-28T09:20:54;45757.97;;;-141.29;54.38
22025;BME280;11176;51.448;6.650;2023-02-28T09:23:20;45731.97;;;-141.29;53.41
22025;BME280;11176;51.448;6.650;2023-02-28T09:25:50;45761.97;;;-141.29;52.68
22025;BME280;11176;51.448;6.650;2023-02-28T09:28:17;45749.97;;;-141.29;54.01
22025;BME280;11176;51.448;6.650;2023-02-28T09:30:46;45745.97;;;-141.29;53.07
22025;BME280;11176;51.448;6.650;2023-02-28T09:33:14;45745.97;;;-141.29;53.41
22025;BME280;11176;51.448;6.650;2023-02-28T09:35:42;45743.97;;;-141.29;53.06
22025;BME280;11176;51.448;6.650;2023-02-28T09:38:09;45745.97;;;-141.29;52.51
22025;BME280;11176;51.448;6.650;2023-02-28T09:40:39;45725.97;;;-141.29;52.31
22025;BME280;11176;51.448;6.650;2023-02-28T09:43:12;45755.97;;;-141.29;49.93
22025;BME280;11176;51.448;6.650;2023-02-28T09:45:42;45718.00;;;-141.29;49.16
22025;BME280;11176;51.448;6.650;2023-02-28T09:48:15;45725.97;;;-141.29;50.20
22025;BME280;11176;51.448;6.650;2023-02-28T09:50:52;45727.97;;;-141.29;48.94
22025;BME280;11176;51.448;6.650;2023-02-28T09:53:26;45741.97;;;-141.29;49.91
22025;BME280;11176;51.448;6.650;2023-02-28T09:56:07;45741.97;;;-141.29;48.96
22025;BME280;11176;51.448;6.650;2023-02-28T09:58:42;45733.97;;;-141.29;52.01
22025;BME280;11176;51.448;6.650;2023-02-28T10:06:45;45702.00;;;-141.29;46.88
22025;BME280;11176;51.448;6.650;2023-02-28T10:09:21;45729.97;;;-141.29;48.99
22025;BME280;11176;51.448;6.650;2023-02-28T10:11:52;45725.97;;;-141.29;47.48
22025;BME280;11176;51.448;6.650;2023-02-28T10:14:23;45706.00;;;-141.29;47.16
22025;BME280;11176;51.448;6.650;2023-02-28T10:19:32;45706.00;;;-141.29;47.02
22025;BME280;11176;51.448;6.650;2023-02-28T10:22:20;45710.00;;;-141.29;47.09
22025;BME280;11176;51.448;6.650;2023-02-28T10:24:53;45684.00;;;-141.29;46.58
22025;BME280;11176;51.448;6.650;2023-02-28T10:27:26;45706.00;;;-141.29;45.28
22025;BME280;11176;51.448;6.650;2023-02-28T10:29:57;45706.00;;;-141.29;46.15
22025;BME280;11176;51.448;6.650;2023-02-28T10:32:26;45700.00;;;-141.29;44.44
22025;BME280;11176;51.448;6.650;2023-02-28T10:37:45;45656.03;;;-141.29;66.50
22025;BME280;11176;51.448;6.650;2023-02-28T10:43:04;45652.03;;;-141.29;44.92
22025;BME280;11176;51.448;6.650;2023-02-28T10:45:33;45680.03;;;-141.29;44.30
22025;BME280;11176;51.448;6.650;2023-02-28T10:48:05;45666.03;;;-141.29;43.58
22025;BME280;11176;51.448;6.650;2023-02-28T10:55:43;45666.03;;;-141.29;41.83
22025;BME280;11176;51.448;6.650;2023-02-28T10:58:23;45672.03;;;-141.29;42.09
22025;BME280;11176;51.448;6.650;2023-02-28T11:00:51;45676.03;;;-141.29;42.71
22025;BME280;11176;51.448;6.650;2023-02-28T11:03:32;45686.00;;;-141.29;42.53
22025;BME280;11176;51.448;6.650;2023-02-28T11:06:08;45672.03;;;-141.29;41.92
22025;BME280;11176;51.448;6.650;2023-02-28T11:08:51;45686.00;;;-141.29;41.56
22025;BME280;11176;51.448;6.650;2023-02-28T11:11:20;45698.00;;;-141.29;41.82
22025;BME280;11176;51.448;6.650;2023-02-28T11:13:51;45692.00;;;-141.29;41.87
22025;BME280;11176;51.448;6.650;2023-02-28T11:16:19;45672.03;;;-141.29;42.41
22025;BME280;11176;51.448;6.650;2023-02-28T11:18:49;45646.03;;;-141.29;60.31
22025;BME280;11176;51.448;6.650;2023-02-28T11:21:36;45600.06;;;-141.29;46.54
22025;BME280;11176;51.448;6.650;2023-02-28T11:25:07;45646.03;;;-141.29;42.28
22025;BME280;11176;51.448;6.650;2023-02-28T11:27:02;45642.03;;;-141.29;40.17
22025;BME280;11176;51.448;6.650;2023-02-28T11:29:31;45670.03;;;-141.29;41.81
22025;BME280;11176;51.448;6.650;2023-02-28T11:32:04;45654.03;;;-141.29;42.72
22025;BME280;11176;51.448;6.650;2023-02-28T11:34:31;45646.03;;;-141.29;42.12
22025;BME280;11176;51.448;6.650;2023-02-28T11:37:01;45650.03;;;-141.29;41.26
22025;BME280;11176;51.448;6.650;2023-02-28T11:39:32;45624.06;;;-141.29;41.23
22025;BME280;11176;51.448;6.650;2023-02-28T11:50:42;45596.06;;;-141.29;37.84
22025;BME280;11176;51.448;6.650;2023-02-28T11:53:22;45548.13;;;-141.29;36.58
22025;BME280;11176;51.448;6.650;2023-02-28T11:56:16;45534.13;;;-141.29;35.84
22025;BME280;11176;51.448;6.650;2023-02-28T12:04:24;45510.16;;;-141.29;33.28
22025;BME280;11176;51.448;6.650;2023-02-28T12:12:23;45482.16;;;-141.29;31.24
22025;BME280;11176;51.448;6.650;2023-02-28T12:15:05;45480.16;;;-141.29;31.10
22025;BME280;11176;51.448;6.650;2023-02-28T12:18:10;45472.16;;;-141.29;31.20
22025;BME280;11176;51.448;6.650;2023-02-28T12:20:51;45436.19;;;-141.29;30.64
22025;BME280;11176;51.448;6.650;2023-02-28T12:23:57;45440.19;;;-141.29;29.72
22025;BME280;11176;51.448;6.650;2023-02-28T12:26:44;45422.22;;;-141.29;28.89
22025;BME280;11176;51.448;6.650;2023-02-28T12:29:17;45426.22;;;-141.29;28.84
22025;BME280;11176;51.448;6.650;2023-02-28T12:31:56;45434.19;;;-141.29;29.19
22025;BME280;11176;51.448;6.650;2023-02-28T12:34:42;45410.22;;;-141.29;29.00
22025;BME280;11176;51.448;6.650;2023-02-28T12:37:16;45430.22;;;-141.29;28.61
22025;BME280;11176;51.448;6.650;2023-02-28T12:39:45;45396.22;;;-141.29;28.52
22025;BME280;11176;51.448;6.650;2023-02-28T12:42:25;45420.22;;;-141.29;27.84
22025;BME280;11176;51.448;6.650;2023-02-28T12:45:10;45386.25;;;-141.29;28.04
22025;BME280;11176;51.448;6.650;2023-02-28T12:47:41;45386.25;;;-141.29;28.50
22025;BME280;11176;51.448;6.650;2023-02-28T12:50:11;45378.25;;;-141.29;27.73
22025;BME280;11176;51.448;6.650;2023-02-28T12:52:59;45396.22;;;-141.29;27.67
22025;BME280;11176;51.448;6.650;2023-02-28T12:55:44;45370.25;;;-141.29;27.15
22025;BME280;11176;51.448;6.650;2023-02-28T12:58:24;45366.25;;;-141.29;27.10
22025;BME280;11176;51.448;6.650;2023-02-28T13:09:26;45348.28;;;-141.29;27.85
22025;BME280;11176;51.448;6.650;2023-02-28T13:11:55;45370.25;;;-141.29;27.19
22025;BME280;11176;51.448;6.650;2023-02-28T13:14:27;45372.25;;;-141.29;26.83
22025;BME280;11176;51.448;6.650;2023-02-28T13:19:41;45330.28;;;-141.29;26.58
22025;BME280;11176;51.448;6.650;2023-02-28T13:22:41;45336.28;;;-141.29;26.62
22025;BME280;11176;51.448;6.650;2023-02-28T13:28:09;45350.28;;;-141.29;26.49
22025;BME280;11176;51.448;6.650;2023-02-28T13:33:50;45342.28;;;-141.29;25.85
22025;BME280;11176;51.448;6.650;2023-02-28T13:36:28;45338.28;;;-141.29;26.06
22025;BME280;11176;51.448;6.650;2023-02-28T13:39:03;45318.28;;;-141.29;25.66
22025;BME280;11176;51.448;6.650;2023-02-28T13:41:49;45318.28;;;-141.29;25.78
22025;BME280;11176;51.448;6.650;2023-02-28T13:44:20;45334.28;;;-141.29;25.70
22025;BME280;11176;51.448;6.650;2023-02-28T13:51:50;45336.28;;;-141.29;25.73
22025;BME280;11176;51.448;6.650;2023-02-28T13:54:34;45326.28;;;-141.29;25.33
22025;BME280;11176;51.448;6.650;2023-02-28T13:57:18;45336.28;;;-141.29;25.27
22025;BME280;11176;51.448;6.650;2023-02-28T14:05:29;45324.28;;;-141.29;25.54
22025;BME280;11176;51.448;6.650;2023-02-28T14:07:59;45320.28;;;-141.29;25.05
22025;BME280;11176;51.448;6.650;2023-02-28T14:10:42;45322.28;;;-141.29;25.12
22025;BME280;11176;51.448;6.650;2023-02-28T14:15:56;45314.28;;;-141.29;25.50
22025;BME280;11176;51.448;6.650;2023-02-28T14:18:30;45322.28;;;-141.29;25.77
22025;BME280;11176;51.448;6.650;2023-02-28T14:21:09;45342.28;;;-141.29;26.00
22025;BME280;11176;51.448;6.650;2023-02-28T14:23:46;45346.28;;;-141.29;26.11
22025;BME280;11176;51.448;6.650;2023-02-28T14:26:46;45350.28;;;-141.29;26.64
22025;BME280;11176;51.448;6.650;2023-02-28T14:32:06;45382.25;;;-141.29;27.10
22025;BME280;11176;51.448;6.650;2023-02-28T14:37:41;45382.25;;;-141.29;27.86
22025;BME280;11176;51.448;6.650;2023-02-28T14:40:15;45376.25;;;-141.29;27.86